createdAt,value
2022-08-05T00:01:56.518Z,18.60
2022-08-05T00:06:03.069Z,18.62
2022-08-05T00:08:35.579Z,18.63
2022-08-05T00:11:48.489Z,18.62
2022-08-05T00:14:57.613Z,18.54
2022-08-05T00:17:59.720Z,18.51
2022-08-05T00:21:06.491Z,18.49
2022-08-05T00:24:15.968Z,18.43
2022-08-05T00:27:21.900Z,18.41
2022-08-05T00:30:32.147Z,18.35
2022-08-05T00:34:56.351Z,18.37
2022-08-05T00:37:10.691Z,18.37
2022-08-05T00:40:14.789Z,18.32
2022-08-05T00:43:20.596Z,18.29
2022-08-05T00:46:42.501Z,18.23
2022-08-05T00:49:51.784Z,18.19
2022-08-05T00:52:55.009Z,18.10
2022-08-05T00:55:57.786Z,18.05
2022-08-05T00:59:00.406Z,17.94
2022-08-05T01:02:02.855Z,18.02
2022-08-05T01:05:10.220Z,17.93
2022-08-05T01:08:39.130Z,17.94
2022-08-05T01:11:37.346Z,17.92
2022-08-05T01:15:35.397Z,17.88
2022-08-05T01:18:42.621Z,17.82
2022-08-05T01:22:15.642Z,17.77
2022-08-05T01:25:40.811Z,17.64
2022-08-05T01:29:04.364Z,17.63
2022-08-05T01:32:12.492Z,17.57
2022-08-05T01:35:51.697Z,17.49
2022-08-05T01:38:50.062Z,17.50
2022-08-05T01:41:54.687Z,17.47
2022-08-05T01:44:59.899Z,17.42
2022-08-05T01:48:10.298Z,17.39
2022-08-05T01:51:14.793Z,17.35
2022-08-05T01:54:19.122Z,17.33
2022-08-05T01:58:12.154Z,17.28
2022-08-05T02:01:00.096Z,17.25
2022-08-05T02:04:03.626Z,17.22
2022-08-05T02:07:06.223Z,17.20
2022-08-05T02:10:10.344Z,17.10
2022-08-05T02:13:36.381Z,17.11
2022-08-05T02:16:52.853Z,17.07
2022-08-05T02:19:59.482Z,16.99
2022-08-05T02:23:08.855Z,16.89
2022-08-05T02:26:13.730Z,16.92
2022-08-05T02:29:25.990Z,16.94
2022-08-05T02:32:48.369Z,16.93
2022-08-05T02:35:56.300Z,16.80
2022-08-05T02:39:03.974Z,16.80
2022-08-05T02:42:11.585Z,16.67
2022-08-05T02:45:52.623Z,16.71
2022-08-05T02:48:52.595Z,16.64
2022-08-05T02:52:03.664Z,16.55
2022-08-05T02:55:07.286Z,16.54
2022-08-05T02:58:15.634Z,16.55
2022-08-05T03:01:20.833Z,16.49
2022-08-05T03:04:23.899Z,16.41
2022-08-05T03:07:59.359Z,16.44
2022-08-05T03:11:01.057Z,16.37
2022-08-05T03:14:13.474Z,16.40
2022-08-05T03:17:15.800Z,16.39
2022-08-05T03:20:18.110Z,16.43
2022-08-05T03:23:24.200Z,16.42
2022-08-05T03:26:31.420Z,16.31
2022-08-05T03:29:45.378Z,16.36
2022-08-05T03:32:57.450Z,16.10
2022-08-05T03:35:59.980Z,16.20
2022-08-05T03:39:12.966Z,16.26
2022-08-05T03:42:22.783Z,16.21
2022-08-05T03:45:29.709Z,16.21
2022-08-05T03:48:51.797Z,16.29
2022-08-05T03:52:37.043Z,16.26
2022-08-05T03:56:06.228Z,16.31
2022-08-05T03:58:51.273Z,16.28
2022-08-05T04:01:59.036Z,16.36
2022-08-05T04:05:02.869Z,16.27
2022-08-05T04:08:30.396Z,16.37
2022-08-05T04:11:47.579Z,16.35
2022-08-05T04:14:53.627Z,16.40
2022-08-05T04:18:03.846Z,16.46
2022-08-05T04:21:11.123Z,16.52
2022-08-05T04:24:18.706Z,16.50
2022-08-05T04:27:42.026Z,16.45
2022-08-05T04:30:44.739Z,16.40
2022-08-05T04:34:19.009Z,16.52
2022-08-05T04:37:09.843Z,16.56
2022-08-05T04:40:12.944Z,16.56
2022-08-05T04:43:22.039Z,16.57
2022-08-05T04:46:28.193Z,16.69
2022-08-05T04:49:39.004Z,16.71
2022-08-05T04:52:53.039Z,16.75
2022-08-05T04:56:32.851Z,16.71
2022-08-05T04:59:22.845Z,16.86
2022-08-05T05:02:41.808Z,16.96
2022-08-05T05:06:36.644Z,17.08
2022-08-05T05:09:07.931Z,17.15
2022-08-05T05:12:09.939Z,17.34
2022-08-05T05:15:13.899Z,17.42
2022-08-05T05:18:28.362Z,17.65
2022-08-05T05:21:33.725Z,17.80
2022-08-05T05:24:57.732Z,17.90
2022-08-05T05:27:59.809Z,18.10
2022-08-05T05:31:01.947Z,18.34
2022-08-05T05:34:08.253Z,18.63
2022-08-05T05:37:12.952Z,18.79
2022-08-05T05:40:17.091Z,19.01
2022-08-05T05:43:54.473Z,19.30
2022-08-05T05:46:45.363Z,19.52
2022-08-05T05:49:52.604Z,19.84
2022-08-05T05:53:03.598Z,20.20
2022-08-05T05:56:31.325Z,20.60
2022-08-05T05:59:40.379Z,20.96
2022-08-05T06:02:42.853Z,21.47
2022-08-05T06:05:45.127Z,22.04
2022-08-05T06:08:56.673Z,22.48
2022-08-05T06:12:02.058Z,22.99
2022-08-05T06:15:07.989Z,23.55
2022-08-05T06:18:10.461Z,24.03
2022-08-05T06:21:18.569Z,24.51
2022-08-05T06:24:22.525Z,25.02
2022-08-05T06:28:12.623Z,25.43
2022-08-05T06:30:51.140Z,25.98
2022-08-05T06:34:06.804Z,26.28
2022-08-05T06:37:13.509Z,26.48
2022-08-05T06:40:18.392Z,26.80
2022-08-05T06:43:58.727Z,26.86
2022-08-05T06:46:46.229Z,27.12
2022-08-05T06:50:01.128Z,27.67
2022-08-05T06:53:19.600Z,28.07
2022-08-05T06:56:29.010Z,28.22
2022-08-05T06:59:38.472Z,27.89
2022-08-05T07:02:44.908Z,28.17
2022-08-05T07:05:47.090Z,28.58
2022-08-05T07:08:53.190Z,29.03
2022-08-05T07:12:00.211Z,29.28
2022-08-05T07:15:34.647Z,29.43
2022-08-05T07:18:47.741Z,29.35
2022-08-05T07:22:00.734Z,29.76
2022-08-05T07:25:21.935Z,29.86
2022-08-05T07:28:27.017Z,30.15
2022-08-05T07:31:53.923Z,30.25
2022-08-05T07:34:57.991Z,30.72
2022-08-05T07:38:00.962Z,30.82
2022-08-05T07:42:07.355Z,30.79
2022-08-05T07:44:38.793Z,31.02
2022-08-05T07:47:42.747Z,31.48
2022-08-05T07:50:45.869Z,31.64
2022-08-05T07:53:55.867Z,31.75
2022-08-05T07:57:14.751Z,31.51
2022-08-05T08:00:21.826Z,31.44
2022-08-05T08:03:26.106Z,31.77
2022-08-05T08:06:47.348Z,32.09
2022-08-05T08:09:54.913Z,31.86
2022-08-05T08:12:58.543Z,32.23
2022-08-05T08:16:35.215Z,32.40
2022-08-05T08:20:22.694Z,32.50
2022-08-05T08:22:55.643Z,32.69
2022-08-05T08:25:59.878Z,32.58
2022-08-05T08:29:29.526Z,32.84
2022-08-05T08:32:28.393Z,33.08
2022-08-05T08:35:35.047Z,32.86
2022-08-05T08:38:43.803Z,33.32
2022-08-05T08:41:59.790Z,33.52
2022-08-05T08:45:23.123Z,33.36
2022-08-05T08:48:42.986Z,33.25
2022-08-05T08:52:05.887Z,32.93
2022-08-05T08:55:19.321Z,32.72
2022-08-05T08:58:43.683Z,33.45
2022-08-05T09:01:57.445Z,33.47
2022-08-05T09:05:17.775Z,33.33
2022-08-05T09:08:20.712Z,33.32
2022-08-05T09:11:51.549Z,33.62
2022-08-05T09:14:59.493Z,33.85
2022-08-05T09:18:10.438Z,33.79
2022-08-05T09:21:20.642Z,34.06
2022-08-05T09:24:38.616Z,34.27
2022-08-05T09:28:04.931Z,34.31
2022-08-05T09:31:22.120Z,33.74
2022-08-05T09:34:51.528Z,33.79
2022-08-05T09:38:12.221Z,33.66
2022-08-05T09:41:17.701Z,33.98
2022-08-05T09:44:56.641Z,34.23
2022-08-05T09:48:00.094Z,33.95
2022-08-05T09:51:14.824Z,33.84
2022-08-05T09:54:31.418Z,33.91
2022-08-05T09:57:43.209Z,33.94
2022-08-05T10:00:54.228Z,34.23
2022-08-05T10:04:04.103Z,34.43
2022-08-05T10:07:20.202Z,34.47
2022-08-05T10:10:48.316Z,34.19
2022-08-05T10:13:57.974Z,34.10
2022-08-05T10:17:39.275Z,34.31
2022-08-05T10:20:51.134Z,34.89
2022-08-05T10:24:00.097Z,34.62
2022-08-05T10:27:03.308Z,34.28
2022-08-05T10:31:20.588Z,34.36
2022-08-05T10:33:37.394Z,34.38
2022-08-05T10:36:42.705Z,34.30
2022-08-05T10:40:03.749Z,34.22
2022-08-05T10:43:46.473Z,34.33
2022-08-05T10:46:56.673Z,34.19
2022-08-05T10:50:31.629Z,34.70
2022-08-05T10:53:56.034Z,34.55
2022-08-05T10:57:01.254Z,34.87
2022-08-05T11:00:20.564Z,34.86
2022-08-05T11:03:27.133Z,35.19
2022-08-05T11:06:31.282Z,34.76
2022-08-05T11:09:48.023Z,34.75
2022-08-05T11:12:55.040Z,34.70
2022-08-05T11:16:33.618Z,34.51
2022-08-05T11:20:16.927Z,34.54
2022-08-05T11:24:04.472Z,34.32
2022-08-05T11:27:50.824Z,34.39
2022-08-05T11:30:58.335Z,34.44
2022-08-05T11:34:03.703Z,34.35
2022-08-05T11:38:28.001Z,34.77
2022-08-05T11:41:34.444Z,35.13
2022-08-05T11:44:52.844Z,34.85
2022-08-05T11:47:54.741Z,35.23
2022-08-05T11:50:58.694Z,35.24
2022-08-05T11:54:03.535Z,35.28
2022-08-05T11:57:08.643Z,35.73
2022-08-05T12:00:28.904Z,35.79
2022-08-05T12:03:56.079Z,35.50
2022-08-05T12:07:01.842Z,35.35
2022-08-05T12:10:09.218Z,35.76
2022-08-05T12:13:15.588Z,35.62
2022-08-05T12:16:20.319Z,35.77
2022-08-05T12:20:25.264Z,35.71
2022-08-05T12:23:11.612Z,35.20
2022-08-05T12:26:20.876Z,35.32
2022-08-05T12:29:27.510Z,35.41
2022-08-05T12:32:50.368Z,35.54
2022-08-05T12:35:53.413Z,35.92
2022-08-05T12:38:58.405Z,36.00
2022-08-05T12:42:01.456Z,35.90
2022-08-05T12:45:09.744Z,35.40
2022-08-05T12:48:17.490Z,35.06
2022-08-05T12:52:10.329Z,34.98
2022-08-05T12:54:56.039Z,34.98
2022-08-05T12:58:49.407Z,34.84
2022-08-05T13:02:03.862Z,34.87
2022-08-05T13:04:52.468Z,34.89
2022-08-05T13:07:59.896Z,35.03
2022-08-05T13:11:04.269Z,35.08
2022-08-05T13:14:36.632Z,35.20
2022-08-05T13:17:41.193Z,34.87
2022-08-05T13:20:44.824Z,35.07
2022-08-05T13:23:50.918Z,35.12
2022-08-05T13:26:54.805Z,34.85
2022-08-05T13:29:59.621Z,34.95
2022-08-05T13:34:22.321Z,35.08
2022-08-05T13:36:46.882Z,35.05
2022-08-05T13:40:15.973Z,34.72
2022-08-05T13:43:21.744Z,34.82
2022-08-05T13:46:44.002Z,34.74
2022-08-05T13:49:48.707Z,34.90
2022-08-05T13:52:51.545Z,35.03
2022-08-05T13:56:00.207Z,35.13
2022-08-05T13:59:06.302Z,34.96
2022-08-05T14:02:26.595Z,34.91
2022-08-05T14:06:04.619Z,35.05
2022-08-05T14:08:54.544Z,35.09
2022-08-05T14:12:03.920Z,35.03
2022-08-05T14:16:08.115Z,35.06
2022-08-05T14:18:41.690Z,34.78
2022-08-05T14:22:09.005Z,34.80
2022-08-05T14:25:21.814Z,34.43
2022-08-05T14:28:27.066Z,34.11
2022-08-05T14:31:54.565Z,34.04
2022-08-05T14:34:53.147Z,33.99
2022-08-05T14:37:57.303Z,34.03
2022-08-05T14:41:07.252Z,33.89
2022-08-05T14:44:20.206Z,34.04
2022-08-05T14:48:03.137Z,33.97
2022-08-05T14:50:45.781Z,33.89
2022-08-05T14:54:06.912Z,34.08
2022-08-05T14:57:14.060Z,34.06
2022-08-05T15:00:16.611Z,33.95
2022-08-05T15:03:22.965Z,33.85
2022-08-05T15:06:28.009Z,33.85
2022-08-05T15:09:51.531Z,33.78
2022-08-05T15:13:00.992Z,33.71
2022-08-05T15:16:06.402Z,33.42
2022-08-05T15:19:23.176Z,33.55
2022-08-05T15:22:28.124Z,33.58
2022-08-05T15:25:50.888Z,33.58
2022-08-05T15:28:53.289Z,33.79
2022-08-05T15:31:56.765Z,33.86
2022-08-05T15:35:04.062Z,33.99
2022-08-05T15:38:34.622Z,33.79
2022-08-05T15:41:57.241Z,33.77
2022-08-05T15:44:59.086Z,33.71
2022-08-05T15:48:05.022Z,33.72
2022-08-05T15:51:09.366Z,33.78
2022-08-05T15:54:14.956Z,33.64
2022-08-05T15:57:17.871Z,33.57
2022-08-05T16:00:26.137Z,33.64
2022-08-05T16:03:48.565Z,33.72
2022-08-05T16:06:56.011Z,33.69
2022-08-05T16:09:58.501Z,33.57
2022-08-05T16:13:01.055Z,33.27
2022-08-05T16:16:04.499Z,33.41
2022-08-05T16:19:07.597Z,33.31
2022-08-05T16:22:15.364Z,33.39
2022-08-05T16:25:18.862Z,33.17
2022-08-05T16:28:21.080Z,33.23
2022-08-05T16:31:26.806Z,33.34
2022-08-05T16:34:50.914Z,33.40
2022-08-05T16:38:02.516Z,33.08
2022-08-05T16:42:15.413Z,33.18
2022-08-05T16:44:39.097Z,33.10
2022-08-05T16:47:53.523Z,33.06
2022-08-05T16:50:59.946Z,32.97
2022-08-05T16:54:15.920Z,33.06
2022-08-05T16:57:30.146Z,33.01
2022-08-05T17:00:46.855Z,33.05
2022-08-05T17:03:52.117Z,33.09
2022-08-05T17:06:55.830Z,33.07
2022-08-05T17:10:03.574Z,32.96
2022-08-05T17:13:05.886Z,33.05
2022-08-05T17:16:32.535Z,33.09
2022-08-05T17:19:36.065Z,33.05
2022-08-05T17:22:38.797Z,33.02
2022-08-05T17:25:41.786Z,32.94
2022-08-05T17:28:44.856Z,32.81
2022-08-05T17:31:56.836Z,32.64
2022-08-05T17:35:00.607Z,32.49
2022-08-05T17:38:07.685Z,32.36
2022-08-05T17:41:22.931Z,32.16
2022-08-05T17:44:32.902Z,32.02
2022-08-05T17:47:35.402Z,31.88
2022-08-05T17:50:38.721Z,31.69
2022-08-05T17:53:42.388Z,31.52
2022-08-05T17:56:44.877Z,31.29
2022-08-05T18:00:05.623Z,31.13
2022-08-05T18:03:08.382Z,30.94
2022-08-05T18:06:15.140Z,30.77
2022-08-05T18:09:17.808Z,30.54
2022-08-05T18:12:22.145Z,30.34
2022-08-05T18:15:27.736Z,30.19
2022-08-05T18:18:34.021Z,30.04
2022-08-05T18:22:08.891Z,29.88
2022-08-05T18:25:05.783Z,29.68
2022-08-05T18:28:09.297Z,29.52
2022-08-05T18:31:12.082Z,29.33
2022-08-05T18:34:18.007Z,29.26
2022-08-05T18:37:34.309Z,29.09
2022-08-05T18:42:00.312Z,28.89
2022-08-05T18:44:06.296Z,28.71
2022-08-05T18:47:10.440Z,28.56
2022-08-05T18:50:44.934Z,28.38
2022-08-05T18:53:50.365Z,28.16
2022-08-05T18:56:53.106Z,28.00
2022-08-05T19:00:02.954Z,27.83
2022-08-05T19:03:08.120Z,27.65
2022-08-05T19:06:18.963Z,27.46
2022-08-05T19:09:24.706Z,27.22
2022-08-05T19:12:29.534Z,27.07
2022-08-05T19:15:59.270Z,26.89
2022-08-05T19:18:56.433Z,26.78
2022-08-05T19:21:59.532Z,26.64
2022-08-05T19:25:03.026Z,26.46
2022-08-05T19:28:05.544Z,26.31
2022-08-05T19:31:08.025Z,26.19
2022-08-05T19:34:10.372Z,26.03
2022-08-05T19:37:12.647Z,25.91
2022-08-05T19:40:15.598Z,25.76
2022-08-05T19:43:31.217Z,25.69
2022-08-05T19:50:25.956Z,25.55
2022-08-05T19:54:03.600Z,25.47
2022-08-05T19:56:55.275Z,25.40
2022-08-05T20:00:02.484Z,25.30
2022-08-05T20:03:13.749Z,25.20
2022-08-05T20:06:28.542Z,25.08
2022-08-05T20:09:54.645Z,24.98
2022-08-05T20:12:55.211Z,24.91
2022-08-05T20:15:58.399Z,24.87
2022-08-05T20:19:03.410Z,24.76
2022-08-05T20:22:05.952Z,24.62
2022-08-05T20:25:12.176Z,24.57
2022-08-05T20:28:14.780Z,24.53
2022-08-05T20:31:21.711Z,24.41
2022-08-05T20:34:30.877Z,24.40
2022-08-05T20:38:05.659Z,24.29
2022-08-05T20:40:56.426Z,24.19
2022-08-05T20:44:06.074Z,24.21
2022-08-05T20:47:21.247Z,24.15
2022-08-05T20:50:40.867Z,24.09
2022-08-05T20:53:56.343Z,24.06
2022-08-05T20:56:59.763Z,24.00
2022-08-05T21:00:19.846Z,23.94
2022-08-05T21:03:34.151Z,23.90
2022-08-05T21:06:37.679Z,23.81
2022-08-05T21:09:53.257Z,23.78
2022-08-05T21:13:08.742Z,23.69
2022-08-05T21:16:13.677Z,23.65
2022-08-05T21:19:17.384Z,23.58
2022-08-05T21:22:23.838Z,23.58
2022-08-05T21:25:26.184Z,23.55
2022-08-05T21:28:36.606Z,23.51
2022-08-05T21:31:41.166Z,23.49
2022-08-05T21:34:44.729Z,23.45
2022-08-05T21:38:06.978Z,23.36
2022-08-05T21:41:12.031Z,23.32
2022-08-05T21:44:14.229Z,23.25
2022-08-05T21:47:55.714Z,23.16
2022-08-05T21:50:41.071Z,23.13
2022-08-05T21:53:43.540Z,23.06
2022-08-05T22:00:24.676Z,22.90
2022-08-05T22:03:51.922Z,22.89
2022-08-05T22:06:50.511Z,22.90
2022-08-05T22:09:52.750Z,22.90
2022-08-05T22:13:09.173Z,22.87
2022-08-05T22:16:42.165Z,22.78
2022-08-05T22:20:02.226Z,22.76
2022-08-05T22:24:02.701Z,22.73
2022-08-05T22:27:07.069Z,22.68
2022-08-05T22:30:14.727Z,22.68
2022-08-05T22:33:19.792Z,22.64
2022-08-05T22:36:41.918Z,22.60
2022-08-05T22:39:45.533Z,22.59
2022-08-05T22:42:53.104Z,22.56
2022-08-05T22:46:02.520Z,22.51
2022-08-05T22:49:23.089Z,22.48
2022-08-05T22:52:34.487Z,22.46
2022-08-05T22:55:57.360Z,22.45
2022-08-05T22:59:03.926Z,22.40
2022-08-05T23:02:07.898Z,22.39
2022-08-05T23:05:10.381Z,22.36
2022-08-05T23:08:12.765Z,22.30
2022-08-05T23:11:16.627Z,22.28
2022-08-05T23:14:22.554Z,22.27
2022-08-05T23:17:35.019Z,22.21
2022-08-05T23:20:40.262Z,22.17
2022-08-05T23:23:45.500Z,22.10
2022-08-05T23:26:47.634Z,22.10
2022-08-05T23:29:50.669Z,22.08
2022-08-05T23:32:52.927Z,22.04
2022-08-05T23:35:56.437Z,22.02
2022-08-05T23:38:58.859Z,22.00
2022-08-05T23:42:01.419Z,21.96
2022-08-05T23:45:05.425Z,21.94
2022-08-05T23:48:16.864Z,21.89
2022-08-05T23:51:21.819Z,21.82
2022-08-05T23:54:30.397Z,21.75
2022-08-05T23:57:36.803Z,21.68
